Time;durP1;ratioP1;P1;durP2;ratioP2;P2;SDS_P1;SDS_P2;PMS_P1;PMS_P2;Temp;Humidity;BMP_temperature;BMP_pressure;BME280_temperature;BME280_humidity;BME280_pressure;Samples;Min_cycle;Max_cycle;Signal;HPM_P1;HPM_P2
2021/10/06 00:02:20;;;;;;;6.70;2.53;;;12.90;82.90;;;;;;5042095;28;20489;-42
2021/10/06 00:04:47;;;;;;;3.03;1.47;;;12.90;83.10;;;;;;5044122;28;20851;-42
2021/10/06 00:07:14;;;;;;;1.50;1.40;;;12.90;83.40;;;;;;5023468;28;20454;-42
2021/10/06 00:09:40;;;;;;;3.00;2.57;;;12.90;83.20;;;;;;5028442;28;20458;-42
2021/10/06 00:12:07;;;;;;;4.43;1.93;;;12.90;83.20;;;;;;5029596;28;20454;-42
2021/10/06 00:14:34;;;;;;;1.93;1.67;;;13.00;83.20;;;;;;5043165;28;20474;-43
2021/10/06 00:17:20;;;;;;;3.80;1.50;;;13.00;82.80;;;;;;5042344;28;20465;-43
2021/10/06 00:19:47;;;;;;;2.63;1.20;;;12.90;82.90;;;;;;5015859;28;20462;-43
2021/10/06 00:22:14;;;;;;;4.70;1.87;;;12.90;83.10;;;;;;5044113;28;20461;-43
2021/10/06 00:24:40;;;;;;;1.53;1.43;;;12.90;83.40;;;;;;5039000;28;20490;-43
2021/10/06 00:27:07;;;;;;;2.13;1.40;;;13.00;83.50;;;;;;5042179;28;20463;-43
2021/10/06 00:29:34;;;;;;;1.87;1.20;;;13.00;83.30;;;;;;5036908;28;20456;-43
2021/10/06 00:32:01;;;;;;;1.37;0.80;;;13.00;83.10;;;;;;5040048;28;20470;-43
2021/10/06 00:34:27;;;;;;;2.10;1.17;;;13.00;82.80;;;;;;5041160;28;20859;-43
2021/10/06 00:36:54;;;;;;;2.50;1.20;;;13.10;82.90;;;;;;5031992;28;20842;-43
2021/10/06 00:39:21;;;;;;;2.53;1.30;;;13.10;82.90;;;;;;5044514;28;20809;-43
2021/10/06 00:41:47;;;;;;;1.57;1.03;;;13.10;82.40;;;;;;5040391;28;20450;-43
2021/10/06 00:44:18;;;;;;;4.13;1.03;;;13.10;82.60;;;;;;5042612;28;21125;-43
2021/10/06 00:46:46;;;;;;;4.50;1.23;;;13.20;82.40;;;;;;5038116;28;20463;-43
2021/10/06 00:49:14;;;;;;;1.60;0.97;;;13.20;82.00;;;;;;5041722;28;20480;-43
2021/10/06 00:51:41;;;;;;;2.10;1.00;;;13.20;82.00;;;;;;5040722;28;21369;-43
2021/10/06 00:54:08;;;;;;;1.73;1.00;;;13.20;81.60;;;;;;5044863;28;20455;-43
2021/10/06 00:56:35;;;;;;;5.07;2.37;;;13.20;81.50;;;;;;5044909;28;20462;-43
2021/10/06 00:59:03;;;;;;;2.30;1.53;;;13.20;81.30;;;;;;5041831;28;20498;-43
2021/10/06 01:01:30;;;;;;;2.43;1.00;;;13.10;81.30;;;;;;5044153;28;20458;-43
2021/10/06 01:03:57;;;;;;;2.00;1.30;;;13.10;81.70;;;;;;5045928;28;21097;-43
2021/10/06 01:06:24;;;;;;;2.30;1.40;;;13.20;81.30;;;;;;5029099;28;20963;-43
2021/10/06 01:08:51;;;;;;;3.80;1.53;;;13.20;81.30;;;;;;5038210;28;20836;-43
2021/10/06 01:11:18;;;;;;;2.07;1.20;;;13.20;81.30;;;;;;5040772;28;20463;-43
2021/10/06 01:13:45;;;;;;;4.20;1.47;;;13.10;81.60;;;;;;5040621;28;20508;-43
2021/10/06 01:16:12;;;;;;;2.53;1.03;;;13.10;81.60;;;;;;5022771;28;20473;-43
2021/10/06 01:18:39;;;;;;;3.20;1.13;;;13.10;82.00;;;;;;5042188;28;20475;-43
2021/10/06 01:21:14;;;;;;;2.70;1.40;;;13.10;81.60;;;;;;5039263;28;20471;-43
2021/10/06 01:23:42;;;;;;;2.03;1.07;;;13.10;81.50;;;;;;5044957;28;20488;-43
2021/10/06 01:26:08;;;;;;;4.20;1.23;;;13.10;81.90;;;;;;5042875;28;20451;-43
2021/10/06 01:28:35;;;;;;;4.23;1.10;;;13.10;81.90;;;;;;5042160;28;20467;-43
2021/10/06 01:31:02;;;;;;;1.80;1.40;;;13.10;82.10;;;;;;5041052;28;20463;-43
2021/10/06 01:33:29;;;;;;;2.40;1.20;;;13.10;81.80;;;;;;5039364;28;20474;-43
2021/10/06 01:35:56;;;;;;;1.57;0.90;;;13.10;81.90;;;;;;5041070;28;20462;-43
2021/10/06 01:38:23;;;;;;;2.40;1.17;;;13.10;82.00;;;;;;5041275;28;20860;-43
2021/10/06 01:40:50;;;;;;;2.40;1.37;;;13.10;82.00;;;;;;5039967;28;20462;-43
2021/10/06 01:43:16;;;;;;;1.73;1.27;;;13.10;81.90;;;;;;5041768;28;21034;-42
2021/10/06 01:45:43;;;;;;;4.37;1.20;;;13.10;82.00;;;;;;5042479;28;20772;-42
2021/10/06 01:48:12;;;;;;;2.20;1.30;;;13.10;82.00;;;;;;5039815;28;20451;-43
2021/10/06 01:50:41;;;;;;;1.30;1.10;;;13.10;82.10;;;;;;5025769;28;20459;-43
2021/10/06 01:53:13;;;;;;;4.60;1.90;;;13.20;82.10;;;;;;5036736;28;21031;-43
2021/10/06 01:55:41;;;;;;;2.10;1.20;;;13.20;82.10;;;;;;5028322;28;20454;-43
2021/10/06 01:58:17;;;;;;;1.73;1.27;;;13.20;81.90;;;;;;5040258;28;20835;-43
2021/10/06 02:00:47;;;;;;;1.70;1.57;;;13.20;81.80;;;;;;5040158;28;20470;-42
2021/10/06 02:03:14;;;;;;;1.77;1.03;;;13.20;81.60;;;;;;5044818;28;20529;-43
2021/10/06 02:05:41;;;;;;;2.97;1.33;;;13.20;81.80;;;;;;5043964;28;20465;-43
2021/10/06 02:08:09;;;;;;;4.07;1.23;;;13.10;82.10;;;;;;5026996;28;20443;-43
2021/10/06 02:10:37;;;;;;;2.27;1.43;;;13.10;82.20;;;;;;5045127;28;20459;-43
2021/10/06 02:13:04;;;;;;;1.53;1.00;;;13.10;82.40;;;;;;5040150;28;20470;-43
2021/10/06 02:15:30;;;;;;;2.30;1.60;;;13.20;82.60;;;;;;5040623;28;20546;-43
2021/10/06 02:17:57;;;;;;;1.50;1.40;;;13.10;82.60;;;;;;5026101;28;20967;-43
2021/10/06 02:20:25;;;;;;;2.10;2.00;;;13.20;82.10;;;;;;5038825;28;20461;-43
2021/10/06 02:22:52;;;;;;;4.07;1.73;;;13.10;82.30;;;;;;5041332;28;20879;-43
2021/10/06 02:25:20;;;;;;;3.97;1.87;;;13.20;82.20;;;;;;5039560;28;20483;-42
2021/10/06 02:27:47;;;;;;;3.37;1.70;;;13.10;82.20;;;;;;5028003;28;20450;-42
2021/10/06 02:30:15;;;;;;;3.20;1.27;;;13.20;82.30;;;;;;5042757;28;20801;-42
2021/10/06 02:32:42;;;;;;;5.10;1.40;;;13.20;82.30;;;;;;5045677;28;20470;-42
2021/10/06 02:35:10;;;;;;;2.03;1.93;;;13.20;82.00;;;;;;5043806;28;20481;-43
2021/10/06 02:37:38;;;;;;;1.83;1.73;;;13.20;82.30;;;;;;5045648;28;20821;-43
2021/10/06 02:40:08;;;;;;;1.63;1.50;;;13.20;81.60;;;;;;5044600;28;20454;-42
2021/10/06 02:42:36;;;;;;;1.97;1.40;;;13.20;81.70;;;;;;5043922;28;20454;-42
2021/10/06 02:45:06;;;;;;;2.40;1.57;;;13.20;81.70;;;;;;5041426;28;20494;-41
2021/10/06 02:47:33;;;;;;;4.90;1.83;;;13.20;81.90;;;;;;5043553;28;20501;-41
2021/10/06 02:50:00;;;;;;;2.63;1.73;;;13.20;82.40;;;;;;5043353;28;20452;-42
2021/10/06 02:52:26;;;;;;;1.23;1.13;;;13.20;82.10;;;;;;5043556;28;20443;-41
2021/10/06 02:54:54;;;;;;;1.53;1.43;;;13.10;82.20;;;;;;5027922;28;20459;-41
2021/10/06 02:57:20;;;;;;;5.63;1.50;;;13.10;82.40;;;;;;5042080;28;20460;-41
2021/10/06 02:59:47;;;;;;;1.70;1.60;;;13.10;82.10;;;;;;5044469;28;20467;-41
2021/10/06 03:02:14;;;;;;;2.00;1.27;;;13.10;81.60;;;;;;5029826;28;20462;-42
2021/10/06 03:04:41;;;;;;;3.50;1.40;;;13.10;81.10;;;;;;5043592;28;20482;-42
2021/10/06 03:07:07;;;;;;;1.90;1.50;;;13.00;81.30;;;;;;5047120;28;20435;-42
2021/10/06 03:09:34;;;;;;;4.47;1.53;;;13.00;81.40;;;;;;5044552;28;20452;-42
2021/10/06 03:12:01;;;;;;;1.63;1.47;;;13.00;81.90;;;;;;5043809;28;20455;-42
2021/10/06 03:14:28;;;;;;;1.30;1.10;;;12.90;82.20;;;;;;5044406;28;21013;-42
2021/10/06 03:16:55;;;;;;;4.57;2.50;;;12.90;82.30;;;;;;5023210;28;20452;-42
2021/10/06 03:19:21;;;;;;;7.43;1.67;;;13.00;81.50;;;;;;5025429;28;21011;-42
2021/10/06 03:21:48;;;;;;;2.80;1.33;;;13.00;81.10;;;;;;5042426;28;20884;-42
2021/10/06 03:24:16;;;;;;;3.00;1.50;;;13.00;81.30;;;;;;5024256;28;21003;-42
2021/10/06 03:26:42;;;;;;;2.67;1.53;;;12.90;81.10;;;;;;5041689;28;20454;-42
2021/10/06 03:29:09;;;;;;;4.10;1.77;;;12.90;81.40;;;;;;5042520;28;20451;-41
2021/10/06 03:31:36;;;;;;;2.80;1.53;;;12.90;81.50;;;;;;5042963;28;20451;-41
2021/10/06 03:34:03;;;;;;;2.90;1.50;;;12.90;81.70;;;;;;5030351;28;20474;-41
2021/10/06 03:36:29;;;;;;;2.20;1.50;;;12.90;81.60;;;;;;5043486;28;20456;-41
2021/10/06 03:38:56;;;;;;;3.33;1.60;;;12.90;80.90;;;;;;5041771;28;20801;-42
2021/10/06 03:41:23;;;;;;;3.87;2.03;;;12.90;81.10;;;;;;5046304;28;20475;-42
2021/10/06 03:43:50;;;;;;;3.90;1.50;;;12.90;80.50;;;;;;5025121;28;20489;-42
2021/10/06 03:46:16;;;;;;;2.87;1.90;;;12.90;80.20;;;;;;5043909;28;20454;-42
2021/10/06 03:48:45;;;;;;;4.10;2.90;;;12.90;80.60;;;;;;5044215;28;20458;-42
2021/10/06 03:51:12;;;;;;;3.27;1.80;;;12.90;80.60;;;;;;5040377;28;20460;-42
2021/10/06 03:53:39;;;;;;;3.70;2.13;;;12.80;80.80;;;;;;5029746;28;20943;-42
2021/10/06 03:56:06;;;;;;;1.67;1.57;;;12.80;80.90;;;;;;5039458;28;20956;-42
2021/10/06 03:58:33;;;;;;;2.30;1.53;;;12.80;80.60;;;;;;5031896;28;20460;-42
2021/10/06 04:00:59;;;;;;;5.20;2.03;;;12.80;80.90;;;;;;5042839;28;20462;-42
2021/10/06 04:03:26;;;;;;;1.80;1.70;;;12.80;80.90;;;;;;5043553;28;20509;-42
2021/10/06 04:05:53;;;;;;;4.70;1.97;;;12.80;80.90;;;;;;5045833;28;20529;-42
2021/10/06 04:08:19;;;;;;;3.27;1.77;;;12.70;81.10;;;;;;5043196;28;20978;-42
2021/10/06 04:10:46;;;;;;;3.83;1.90;;;12.70;81.20;;;;;;5043462;28;20459;-42
2021/10/06 04:13:13;;;;;;;2.90;2.20;;;12.70;81.30;;;;;;5040867;28;20776;-42
2021/10/06 04:15:40;;;;;;;3.30;2.13;;;12.70;81.60;;;;;;5043150;28;20482;-42
2021/10/06 04:18:06;;;;;;;3.20;2.07;;;12.70;81.50;;;;;;5045536;28;20470;-42
2021/10/06 04:20:34;;;;;;;2.27;1.67;;;12.70;81.50;;;;;;5042855;28;20450;-42
2021/10/06 04:23:00;;;;;;;7.63;3.43;;;12.60;81.70;;;;;;5041343;28;20849;-42
2021/10/06 04:25:27;;;;;;;2.50;2.30;;;12.60;82.10;;;;;;5040666;28;20631;-42
2021/10/06 04:27:54;;;;;;;1.83;1.73;;;12.60;82.30;;;;;;5043304;28;20465;-42
2021/10/06 04:30:21;;;;;;;16.93;7.20;;;12.60;82.00;;;;;;5040599;28;20444;-42
2021/10/06 04:32:47;;;;;;;7.30;5.27;;;12.60;82.20;;;;;;5028082;28;20459;-42
2021/10/06 04:35:14;;;;;;;2.90;2.43;;;12.60;82.50;;;;;;5042735;28;20461;-42
2021/10/06 04:37:41;;;;;;;7.17;2.00;;;12.60;82.60;;;;;;5039301;28;20447;-42
2021/10/06 04:40:09;;;;;;;7.37;2.10;;;12.60;82.40;;;;;;5040718;28;20458;-42
2021/10/06 04:42:36;;;;;;;3.23;2.27;;;12.60;82.30;;;;;;5041361;28;20967;-41
2021/10/06 04:45:04;;;;;;;3.00;1.97;;;12.70;82.20;;;;;;5041780;28;21067;-41
2021/10/06 04:47:30;;;;;;;2.63;2.33;;;12.70;82.00;;;;;;5045063;28;20461;-42
2021/10/06 04:49:57;;;;;;;2.83;2.10;;;12.70;82.00;;;;;;5042490;28;20448;-42
2021/10/06 04:52:24;;;;;;;3.43;2.33;;;12.60;82.20;;;;;;5039417;28;20641;-42
2021/10/06 04:54:52;;;;;;;4.13;2.40;;;12.70;82.20;;;;;;5040486;28;20468;-42
2021/10/06 04:57:20;;;;;;;3.03;2.40;;;12.60;82.20;;;;;;5035886;28;20462;-42
2021/10/06 04:59:47;;;;;;;4.13;2.47;;;12.60;81.90;;;;;;5033091;28;20866;-42
2021/10/06 05:02:13;;;;;;;4.03;2.60;;;12.60;81.80;;;;;;5033001;28;20466;-42
2021/10/06 05:04:40;;;;;;;3.63;3.00;;;12.60;81.70;;;;;;5031185;28;20487;-42
2021/10/06 05:07:07;;;;;;;3.70;2.30;;;12.60;81.40;;;;;;5031354;28;20467;-42
2021/10/06 05:09:35;;;;;;;6.77;2.20;;;12.60;81.50;;;;;;5036745;28;20455;-41
2021/10/06 05:12:01;;;;;;;2.20;2.07;;;12.50;81.70;;;;;;5034817;28;20501;-41
2021/10/06 05:14:28;;;;;;;4.50;3.10;;;12.50;81.60;;;;;;5035076;28;20513;-42
2021/10/06 05:16:55;;;;;;;4.27;2.40;;;12.40;82.00;;;;;;5033430;28;20470;-42
2021/10/06 05:19:22;;;;;;;3.53;2.33;;;12.40;82.00;;;;;;5031410;28;20548;-42
2021/10/06 05:21:49;;;;;;;2.90;2.03;;;12.40;82.20;;;;;;5014589;28;20462;-42
2021/10/06 05:24:15;;;;;;;6.13;2.93;;;12.40;82.00;;;;;;5043227;28;20502;-42
2021/10/06 05:26:42;;;;;;;5.60;3.20;;;12.30;82.40;;;;;;5044567;28;20446;-42
2021/10/06 05:29:09;;;;;;;5.37;2.67;;;12.30;82.20;;;;;;5038583;28;20455;-42
2021/10/06 05:31:35;;;;;;;3.53;3.23;;;12.30;82.10;;;;;;5040871;28;20462;-42
2021/10/06 05:34:02;;;;;;;6.17;3.20;;;12.30;82.20;;;;;;5042265;28;20463;-42
2021/10/06 05:36:32;;;;;;;3.73;2.63;;;12.30;82.10;;;;;;5041044;28;20521;-41
2021/10/06 05:38:59;;;;;;;3.93;3.43;;;12.30;82.50;;;;;;5030525;28;20509;-41
2021/10/06 05:41:26;;;;;;;4.50;3.20;;;12.30;82.80;;;;;;5039823;28;20461;-42
2021/10/06 05:43:53;;;;;;;5.17;3.00;;;12.20;82.90;;;;;;5025379;28;20458;-42
2021/10/06 05:46:20;;;;;;;14.23;4.23;;;12.20;83.10;;;;;;5039053;28;20499;-41
2021/10/06 05:48:46;;;;;;;7.90;3.77;;;12.30;83.00;;;;;;5039311;28;20462;-41
2021/10/06 05:51:13;;;;;;;3.90;3.43;;;12.30;83.00;;;;;;5039687;28;20454;-41
2021/10/06 05:53:40;;;;;;;3.23;2.97;;;12.30;83.10;;;;;;5039807;28;20454;-41
2021/10/06 05:56:07;;;;;;;3.53;2.97;;;12.30;83.10;;;;;;5041663;28;20963;-41
2021/10/06 05:58:33;;;;;;;7.60;3.33;;;12.30;83.00;;;;;;5043282;28;20470;-41
2021/10/06 06:01:00;;;;;;;3.80;3.27;;;12.30;82.90;;;;;;5022859;28;20466;-41
2021/10/06 06:03:27;;;;;;;4.63;3.20;;;12.30;82.80;;;;;;5040496;28;20462;-41
2021/10/06 06:05:54;;;;;;;8.13;3.80;;;12.30;82.50;;;;;;5044852;28;20498;-41
2021/10/06 06:08:20;;;;;;;4.20;3.00;;;12.30;82.50;;;;;;5042018;28;20543;-41
2021/10/06 06:10:47;;;;;;;6.63;4.07;;;12.30;82.70;;;;;;5048685;28;20450;-42
2021/10/06 06:13:14;;;;;;;7.53;4.23;;;12.30;82.90;;;;;;5044708;28;20482;-42
2021/10/06 06:15:40;;;;;;;4.97;3.27;;;12.30;82.90;;;;;;5042027;28;20489;-42
2021/10/06 06:18:07;;;;;;;3.90;3.10;;;12.30;83.00;;;;;;5042427;28;20459;-42
2021/10/06 06:20:34;;;;;;;5.50;3.77;;;12.40;82.90;;;;;;5041666;28;20458;-42
2021/10/06 06:23:01;;;;;;;5.17;3.53;;;12.40;82.50;;;;;;5041929;28;20467;-42
2021/10/06 06:25:27;;;;;;;6.53;3.20;;;12.40;82.60;;;;;;5011645;28;20486;-42
2021/10/06 06:27:54;;;;;;;5.77;2.97;;;12.50;82.60;;;;;;5047137;28;20982;-42
2021/10/06 06:30:21;;;;;;;11.23;3.80;;;12.50;82.30;;;;;;5044163;28;20447;-42
2021/10/06 06:32:48;;;;;;;4.50;3.57;;;12.50;82.40;;;;;;5047406;28;20477;-42
2021/10/06 06:35:14;;;;;;;4.67;2.70;;;12.50;82.60;;;;;;5029854;28;20466;-42
2021/10/06 06:37:41;;;;;;;7.97;3.03;;;12.50;82.70;;;;;;5041636;28;20967;-42
2021/10/06 06:40:09;;;;;;;4.33;3.43;;;12.60;82.20;;;;;;5041301;28;21319;-42
2021/10/06 06:42:37;;;;;;;5.03;3.30;;;12.60;82.30;;;;;;5043691;28;21255;-42
2021/10/06 06:45:05;;;;;;;8.07;3.47;;;12.60;82.50;;;;;;5042142;28;20487;-42
2021/10/06 06:47:32;;;;;;;3.53;2.90;;;12.60;82.40;;;;;;5044869;28;20506;-42
2021/10/06 06:49:58;;;;;;;5.10;3.43;;;12.70;82.10;;;;;;5038562;28;20962;-42
2021/10/06 06:52:25;;;;;;;8.47;3.00;;;12.70;82.10;;;;;;5044801;28;20453;-42
2021/10/06 06:54:52;;;;;;;3.67;2.70;;;12.60;82.30;;;;;;5029767;28;20818;-41
2021/10/06 06:57:19;;;;;;;5.00;3.03;;;12.70;81.80;;;;;;5043995;28;20458;-41
2021/10/06 06:59:46;;;;;;;7.13;3.10;;;12.70;81.70;;;;;;5032415;28;20443;-41
2021/10/06 07:02:13;;;;;;;7.10;4.27;;;12.60;82.20;;;;;;5029916;28;20463;-41
2021/10/06 07:04:40;;;;;;;5.63;3.70;;;12.70;82.60;;;;;;5044853;28;20585;-41
2021/10/06 07:07:10;;;;;;;4.77;2.53;;;12.70;82.40;;;;;;5028062;28;20869;-41
2021/10/06 07:09:46;;;;;;;5.63;2.80;;;12.70;82.30;;;;;;5042685;28;20459;-42
2021/10/06 07:12:14;;;;;;;4.40;2.90;;;12.70;82.10;;;;;;5042408;28;20948;-41
2021/10/06 07:14:40;;;;;;;6.27;2.87;;;12.80;82.10;;;;;;5035844;28;20479;-41
2021/10/06 07:17:08;;;;;;;3.80;2.60;;;12.80;82.20;;;;;;5030055;28;20816;-42
2021/10/06 07:19:36;;;;;;;3.90;3.00;;;12.90;81.10;;;;;;5040492;28;20461;-42
2021/10/06 07:22:04;;;;;;;4.13;2.87;;;12.90;80.90;;;;;;5044024;28;20459;-42
2021/10/06 07:24:31;;;;;;;8.00;4.77;;;12.90;80.60;;;;;;5030950;28;20826;-41
2021/10/06 07:26:59;;;;;;;5.77;2.80;;;12.90;80.40;;;;;;5038669;28;20446;-41
2021/10/06 07:29:26;;;;;;;6.73;2.60;;;13.00;80.20;;;;;;5041862;28;20454;-42
2021/10/06 07:31:53;;;;;;;9.60;4.10;;;13.00;80.10;;;;;;5042892;28;20454;-41
2021/10/06 07:34:20;;;;;;;5.10;2.20;;;13.00;80.00;;;;;;5041918;28;21021;-41
2021/10/06 07:36:47;;;;;;;4.03;3.20;;;13.10;80.30;;;;;;5037836;28;20549;-41
2021/10/06 07:39:14;;;;;;;8.73;3.90;;;13.10;80.40;;;;;;5027886;28;20458;-41
2021/10/06 07:41:40;;;;;;;4.20;2.60;;;13.10;80.20;;;;;;5044578;28;20465;-41
2021/10/06 07:44:07;;;;;;;5.87;3.70;;;13.10;80.10;;;;;;5043013;28;20458;-42
2021/10/06 07:46:34;;;;;;;3.63;2.60;;;13.20;79.90;;;;;;5041226;28;20478;-41
2021/10/06 07:49:01;;;;;;;2.87;2.30;;;13.20;79.90;;;;;;5038134;28;20455;-41
2021/10/06 07:51:27;;;;;;;3.97;2.93;;;13.30;79.60;;;;;;5018340;28;22357;-42
2021/10/06 07:53:54;;;;;;;5.37;2.80;;;13.30;79.50;;;;;;5038544;28;20455;-41
2021/10/06 07:56:22;;;;;;;2.70;1.73;;;13.30;79.80;;;;;;5043125;28;20454;-41
2021/10/06 07:58:50;;;;;;;2.03;1.60;;;13.40;78.60;;;;;;5042249;28;20458;-42
2021/10/06 08:01:16;;;;;;;7.17;1.97;;;13.40;78.10;;;;;;5046003;28;20471;-41
2021/10/06 08:04:03;;;;;;;2.67;2.20;;;13.40;78.00;;;;;;5042582;28;20447;-41
2021/10/06 08:06:30;;;;;;;4.07;2.30;;;13.40;78.30;;;;;;5040971;28;20530;-42
2021/10/06 08:08:57;;;;;;;6.67;3.60;;;13.40;78.80;;;;;;5044032;28;20447;-42
2021/10/06 08:11:24;;;;;;;9.30;2.20;;;13.50;78.40;;;;;;5042409;28;20451;-42
2021/10/06 08:13:51;;;;;;;4.40;1.80;;;13.70;77.20;;;;;;5046059;28;20545;-42
2021/10/06 08:16:17;;;;;;;2.50;1.90;;;13.80;76.70;;;;;;5041862;28;20956;-41
2021/10/06 08:18:44;;;;;;;3.53;1.57;;;13.90;76.00;;;;;;5037370;28;21035;-42
2021/10/06 08:21:14;;;;;;;5.10;1.40;;;13.90;75.60;;;;;;5043870;28;21037;-42
2021/10/06 08:23:41;;;;;;;3.03;1.60;;;13.90;76.00;;;;;;5044904;28;21026;-42
2021/10/06 08:26:08;;;;;;;5.50;1.60;;;13.80;76.00;;;;;;5024052;28;20912;-42
2021/10/06 08:28:35;;;;;;;3.00;1.80;;;13.80;76.60;;;;;;5030610;28;20458;-42
2021/10/06 08:31:02;;;;;;;4.67;2.20;;;13.90;76.30;;;;;;5038661;28;20465;-41
2021/10/06 08:33:29;;;;;;;4.30;1.77;;;13.90;75.20;;;;;;5041787;28;20470;-41
2021/10/06 08:35:56;;;;;;;2.50;1.97;;;14.00;75.80;;;;;;5047128;28;20952;-41
2021/10/06 08:38:22;;;;;;;3.10;1.67;;;14.00;75.80;;;;;;5044558;28;20469;-42
2021/10/06 08:40:49;;;;;;;5.33;1.70;;;14.20;75.30;;;;;;5045178;28;20459;-42
2021/10/06 08:43:16;;;;;;;1.67;1.30;;;14.30;75.30;;;;;;5040780;28;20481;-41
2021/10/06 08:45:43;;;;;;;5.53;1.50;;;14.40;74.60;;;;;;5040472;28;20988;-42
2021/10/06 08:48:10;;;;;;;11.53;1.83;;;14.50;74.90;;;;;;5026487;28;20451;-42
2021/10/06 08:50:39;;;;;;;3.07;1.80;;;14.50;73.40;;;;;;5040753;28;20478;-42
2021/10/06 08:53:06;;;;;;;1.90;1.43;;;14.50;73.60;;;;;;5039580;28;20486;-42
2021/10/06 08:55:35;;;;;;;2.80;1.70;;;14.50;73.30;;;;;;5030834;28;20914;-42
2021/10/06 08:58:05;;;;;;;3.60;1.20;;;14.50;74.00;;;;;;5041149;28;20462;-42
2021/10/06 09:00:56;;;;;;;3.13;1.90;;;14.50;72.90;;;;;;5041829;28;20461;-42
2021/10/06 09:03:25;;;;;;;2.97;1.23;;;14.50;73.50;;;;;;5027884;28;20446;-42
2021/10/06 09:06:02;;;;;;;2.03;1.57;;;14.50;74.20;;;;;;5039825;28;20484;-42
2021/10/06 09:08:30;;;;;;;4.07;1.40;;;14.50;74.10;;;;;;5038890;28;20549;-42
2021/10/06 09:10:57;;;;;;;2.73;1.40;;;14.50;73.40;;;;;;5038280;28;20459;-42
2021/10/06 09:13:27;;;;;;;1.53;1.43;;;14.50;73.90;;;;;;5022873;28;21102;-42
2021/10/06 09:15:54;;;;;;;2.07;1.50;;;14.50;73.70;;;;;;5035142;28;20467;-42
2021/10/06 09:18:23;;;;;;;2.60;1.60;;;14.50;73.20;;;;;;5024290;28;20644;-42
2021/10/06 09:20:51;;;;;;;3.27;1.30;;;14.60;73.00;;;;;;5041881;28;20463;-42
2021/10/06 09:23:23;;;;;;;2.63;1.33;;;14.70;73.00;;;;;;5041214;28;20473;-42
2021/10/06 09:25:53;;;;;;;5.03;2.47;;;14.80;73.20;;;;;;5027676;28;20979;-42
2021/10/06 09:28:36;;;;;;;6.03;1.73;;;14.90;73.60;;;;;;5038261;28;20443;-42
2021/10/06 09:31:15;;;;;;;1.67;1.30;;;15.00;72.10;;;;;;5039754;28;20849;-42
2021/10/06 09:33:42;;;;;;;3.67;1.90;;;15.00;71.40;;;;;;5039267;28;20466;-42
2021/10/06 09:36:10;;;;;;;3.47;1.57;;;15.10;70.50;;;;;;5038344;28;20451;-42
2021/10/06 09:38:46;;;;;;;3.33;1.70;;;15.00;70.90;;;;;;5039186;28;20458;-42
2021/10/06 09:41:34;;;;;;;3.43;1.87;;;15.00;70.90;;;;;;5042292;28;20977;-42
2021/10/06 09:44:10;;;;;;;4.57;1.90;;;15.00;70.70;;;;;;5041852;28;20459;-42
2021/10/06 09:47:02;;;;;;;8.17;2.13;;;15.00;70.70;;;;;;5040896;28;20517;-42
2021/10/06 09:49:38;;;;;;;2.37;1.47;;;15.10;71.50;;;;;;5027496;28;20562;-42
2021/10/06 09:52:15;;;;;;;4.20;1.50;;;15.10;69.40;;;;;;5039941;28;20990;-42
2021/10/06 09:54:51;;;;;;;5.53;1.70;;;15.10;69.70;;;;;;5040139;28;20447;-43
2021/10/06 09:57:24;;;;;;;5.67;1.40;;;15.00;70.90;;;;;;5038239;28;20450;-42
2021/10/06 09:59:52;;;;;;;4.17;2.10;;;14.90;72.50;;;;;;5041947;28;20458;-42
2021/10/06 10:02:19;;;;;;;3.57;1.13;;;14.90;72.10;;;;;;5040768;28;20465;-42
2021/10/06 10:04:47;;;;;;;3.43;1.50;;;14.90;73.00;;;;;;5024679;28;20467;-42
2021/10/06 10:07:14;;;;;;;1.37;1.10;;;14.90;72.50;;;;;;5039380;28;20504;-42
2021/10/06 10:09:43;;;;;;;7.10;1.53;;;14.80;72.80;;;;;;5042183;28;20819;-43
2021/10/06 10:12:10;;;;;;;4.90;1.43;;;14.80;73.50;;;;;;5039240;28;20826;-42
2021/10/06 10:14:38;;;;;;;4.47;2.00;;;14.70;73.80;;;;;;5039422;28;21021;-42
2021/10/06 10:17:05;;;;;;;9.13;3.00;;;14.60;74.80;;;;;;5039314;28;20975;-42
2021/10/06 10:19:32;;;;;;;8.70;5.50;;;14.60;75.30;;;;;;5040775;28;20825;-42
2021/10/06 10:22:03;;;;;;;3.60;2.23;;;14.60;76.40;;;;;;5037641;28;20490;-43
2021/10/06 10:24:30;;;;;;;4.60;2.10;;;14.60;75.30;;;;;;5030647;28;20481;-42
2021/10/06 10:27:05;;;;;;;2.37;1.60;;;14.60;75.70;;;;;;5026478;28;20548;-42
2021/10/06 10:29:37;;;;;;;7.70;1.73;;;14.60;75.20;;;;;;5033832;28;20467;-42
2021/10/06 10:32:22;;;;;;;5.33;2.30;;;14.60;75.80;;;;;;5039541;28;20470;-42
2021/10/06 10:35:07;;;;;;;3.77;1.40;;;14.50;77.00;;;;;;5023679;28;20477;-42
2021/10/06 10:37:48;;;;;;;5.03;2.13;;;14.40;78.00;;;;;;5038223;28;20458;-42
2021/10/06 10:40:35;;;;;;;4.80;1.30;;;14.30;78.50;;;;;;5040521;28;20458;-42
2021/10/06 10:43:16;;;;;;;3.07;1.67;;;14.20;78.70;;;;;;5034250;28;20463;-42
2021/10/06 10:45:51;;;;;;;4.03;1.90;;;14.20;78.90;;;;;;5035674;28;20490;-42
2021/10/06 10:48:24;;;;;;;4.90;1.53;;;14.10;79.10;;;;;;5038380;28;20508;-42
2021/10/06 10:50:50;;;;;;;1.50;1.40;;;14.00;80.00;;;;;;5039102;28;20457;-42
2021/10/06 10:53:20;;;;;;;3.80;2.53;;;14.10;80.60;;;;;;5045204;28;20451;-42
2021/10/06 10:55:54;;;;;;;3.93;2.67;;;14.10;81.20;;;;;;5042391;28;20462;-42
2021/10/06 10:58:35;;;;;;;2.20;2.00;;;14.20;81.60;;;;;;5041588;28;20462;-42
2021/10/06 11:01:07;;;;;;;5.03;2.50;;;14.30;80.50;;;;;;5045271;28;20462;-42
2021/10/06 11:04:13;;;;;;;2.97;1.87;;;14.30;80.90;;;;;;5040475;28;20462;-42
2021/10/06 11:06:43;;;;;;;6.10;1.70;;;14.40;80.10;;;;;;5038041;28;20589;-42
2021/10/06 11:09:29;;;;;;;5.30;2.13;;;14.50;80.10;;;;;;5033236;28;20494;-42
2021/10/06 11:12:19;;;;;;;4.27;2.63;;;14.50;80.30;;;;;;5036293;28;20941;-42
2021/10/06 11:14:48;;;;;;;3.13;2.17;;;14.50;78.00;;;;;;5022396;28;21248;-42
2021/10/06 11:17:19;;;;;;;4.73;2.50;;;14.50;77.90;;;;;;5046651;28;20450;-42
2021/10/06 11:19:47;;;;;;;5.03;2.83;;;14.50;78.60;;;;;;5031032;28;20466;-42
2021/10/06 11:22:23;;;;;;;7.40;3.43;;;14.50;77.80;;;;;;5043658;28;20815;-42
2021/10/06 11:24:53;;;;;;;4.30;3.20;;;14.40;78.10;;;;;;5044619;28;20463;-42
2021/10/06 11:27:22;;;;;;;4.20;3.30;;;14.40;77.80;;;;;;5036382;28;20491;-42
2021/10/06 11:29:54;;;;;;;3.77;2.73;;;14.40;77.40;;;;;;5041164;28;20458;-42
2021/10/06 11:32:21;;;;;;;3.80;2.50;;;14.30;77.60;;;;;;5041601;28;20467;-43
2021/10/06 11:34:55;;;;;;;5.27;2.97;;;14.30;76.90;;;;;;5040739;28;20768;-42
2021/10/06 11:37:26;;;;;;;4.10;3.20;;;14.30;76.30;;;;;;5040122;28;20691;-42
2021/10/06 11:39:54;;;;;;;3.47;2.40;;;14.20;76.60;;;;;;5042019;28;21148;-42
2021/10/06 11:42:32;;;;;;;8.27;2.73;;;14.20;77.30;;;;;;5040038;28;20467;-42
2021/10/06 11:44:59;;;;;;;6.47;3.20;;;14.20;77.40;;;;;;5039700;28;20478;-42
2021/10/06 11:47:26;;;;;;;5.43;3.13;;;14.20;77.20;;;;;;5027546;28;20867;-42
2021/10/06 11:49:53;;;;;;;3.20;2.57;;;14.20;78.20;;;;;;5043388;28;20442;-42
2021/10/06 11:52:20;;;;;;;8.30;2.10;;;14.20;77.90;;;;;;5039127;28;20462;-42
2021/10/06 11:54:48;;;;;;;4.67;2.93;;;14.20;76.40;;;;;;5040497;28;20559;-42
2021/10/06 11:57:17;;;;;;;3.17;2.20;;;14.20;76.90;;;;;;5039762;28;20986;-43
2021/10/06 11:59:47;;;;;;;8.53;2.27;;;14.10;77.50;;;;;;5043622;28;20466;-42
2021/10/06 12:02:16;;;;;;;3.00;2.20;;;14.10;77.40;;;;;;5044166;28;20465;-42
2021/10/06 12:04:45;;;;;;;3.13;1.97;;;14.10;77.60;;;;;;5041517;28;20459;-42
2021/10/06 12:07:20;;;;;;;2.87;2.20;;;14.10;77.90;;;;;;5041915;28;20490;-42
2021/10/06 12:09:59;;;;;;;2.90;1.83;;;14.20;77.60;;;;;;5040372;28;20537;-42
2021/10/06 12:12:36;;;;;;;3.63;2.30;;;14.20;77.40;;;;;;5039530;28;20830;-41
2021/10/06 12:15:05;;;;;;;4.60;2.40;;;14.20;77.40;;;;;;5040873;28;21054;-41
2021/10/06 12:17:40;;;;;;;3.40;2.30;;;14.30;77.40;;;;;;5041225;28;20451;-41
2021/10/06 12:20:16;;;;;;;3.20;1.90;;;14.20;78.00;;;;;;5040213;28;20459;-42
2021/10/06 12:22:56;;;;;;;3.87;1.40;;;14.20;76.70;;;;;;5041107;28;20458;-42
2021/10/06 12:25:26;;;;;;;3.33;1.60;;;14.20;75.90;;;;;;5029787;28;20473;-42
2021/10/06 12:28:02;;;;;;;6.83;1.00;;;14.10;76.00;;;;;;5021746;28;21018;-42
2021/10/06 12:30:30;;;;;;;4.97;1.10;;;14.10;76.30;;;;;;5037467;28;20545;-42
2021/10/06 12:33:08;;;;;;;4.47;1.20;;;14.20;75.80;;;;;;5035429;28;20462;-41
2021/10/06 12:35:56;;;;;;;2.87;1.10;;;14.30;75.80;;;;;;5038828;28;20539;-42
2021/10/06 12:38:36;;;;;;;3.60;1.10;;;14.30;74.90;;;;;;5036465;28;20794;-41
2021/10/06 12:41:11;;;;;;;1.57;1.30;;;14.40;74.20;;;;;;5038707;28;20454;-42
2021/10/06 12:43:46;;;;;;;2.10;0.90;;;14.40;73.90;;;;;;5031279;28;20853;-42
2021/10/06 12:46:22;;;;;;;3.47;1.20;;;14.50;74.50;;;;;;5028510;28;20496;-42
2021/10/06 12:48:57;;;;;;;3.00;0.93;;;14.50;73.20;;;;;;5033836;28;20458;-42
2021/10/06 12:51:24;;;;;;;3.37;1.13;;;14.60;72.00;;;;;;5037466;28;20882;-42
2021/10/06 12:54:07;;;;;;;2.43;1.10;;;14.60;71.70;;;;;;5041702;28;20549;-42
2021/10/06 12:56:33;;;;;;;1.67;0.80;;;14.60;71.10;;;;;;5038136;28;20871;-41